Аэропорт: Стригино. Нижний Новгород

ICAO: UWGG

METAR:
2020-08-09 23:00:00
UWGG 092300Z 35003MPS CAVOK 12/11 Q1014 R36R/090070 NOSIG
METAR:
2020-08-09 19:57:00
TAF UWGG 091957Z 0921/1021 34003MPS 9999 SCT020 TX21/1012Z TN10/1003Z TEMPO 1000/1004 3500 BR